Time;durP1;ratioP1;P1;durP2;ratioP2;P2;SDS_P1;SDS_P2;PMS_P1;PMS_P2;Temp;Humidity;BMP_temperature;BMP_pressure;BME280_temperature;BME280_humidity;BME280_pressure;Samples;Min_cycle;Max_cycle;Signal;HPM_P1;HPM_P2
2023/12/22 00:01:30;;;;;;;;;;;;;;;11.93;nan;98100.59;5041186;28;19921;-84
2023/12/22 00:03:56;;;;;;;;;;;;;;;11.86;nan;98101.09;5045160;28;19956;-82
2023/12/22 00:06:21;;;;;;;;;;;;;;;11.84;nan;98107.84;5044333;28;19921;-82
2023/12/22 00:08:46;;;;;;;;;;;;;;;11.85;nan;98096.00;5048144;28;20436;-84
2023/12/22 00:11:12;;;;;;;;;;;;;;;11.87;nan;98115.28;5032005;28;19921;-83
2023/12/22 00:13:37;;;;;;;;;;;;;;;11.89;nan;98111.19;5043458;28;19924;-83
2023/12/22 00:16:02;;;;;;;;;;;;;;;11.85;nan;98114.78;5051983;28;19927;-83
2023/12/22 00:18:28;;;;;;;;;;;;;;;11.88;nan;98147.16;5037080;28;19920;-83
2023/12/22 00:20:53;;;;;;;;;;;;;;;11.87;nan;98131.38;5031430;28;19925;-84
2023/12/22 00:23:18;;;;;;;;;;;;;;;11.87;nan;98140.22;5033220;28;20883;-84
2023/12/22 00:25:44;;;;;;;;;;;;;;;11.78;nan;98132.19;5042521;28;19921;-83
2023/12/22 00:28:09;;;;;;;;;;;;;;;11.78;nan;98132.19;5038049;28;19979;-84
2023/12/22 00:30:34;;;;;;;;;;;;;;;11.77;nan;98135.16;5045700;28;19925;-83
2023/12/22 00:32:59;;;;;;;;;;;;;;;11.82;nan;98132.31;5047485;28;19916;-84
2023/12/22 00:35:25;;;;;;;;;;;;;;;11.77;nan;98146.66;5044786;28;19990;-84
2023/12/22 00:37:50;;;;;;;;;;;;;;;11.78;nan;98168.91;5039745;28;19921;-83
2023/12/22 00:40:15;;;;;;;;;;;;;;;11.76;nan;98150.47;5045827;28;20396;-85
2023/12/22 00:42:40;;;;;;;;;;;;;;;11.77;nan;98162.75;5040713;28;19921;-83
2023/12/22 00:45:06;;;;;;;;;;;;;;;11.75;nan;98178.41;5042539;28;20020;-84
2023/12/22 00:47:34;;;;;;;;;;;;;;;11.74;nan;98171.47;5041981;28;19917;-85
2023/12/22 00:50:00;;;;;;;;;;;;;;;11.76;nan;98176.50;5043128;28;19978;-83
2023/12/22 00:52:26;;;;;;;;;;;;;;;11.76;nan;98188.00;5036571;28;19921;-83
2023/12/22 00:54:51;;;;;;;;;;;;;;;11.77;nan;98188.81;5044929;28;19921;-84
2023/12/22 00:57:17;;;;;;;;;;;;;;;11.72;nan;98187.09;5049958;28;19916;-84
2023/12/22 00:59:47;;;;;;;;;;;;;;;11.72;nan;98189.75;5047636;28;19925;-84
2023/12/22 01:02:12;;;;;;;;;;;;;;;11.73;nan;98183.28;5054548;28;19917;-83
2023/12/22 01:04:38;;;;;;;;;;;;;;;11.70;nan;98204.59;5044535;28;19979;-84
2023/12/22 01:07:03;;;;;;;;;;;;;;;11.66;nan;98220.50;5047400;28;19917;-83
2023/12/22 01:09:28;;;;;;;;;;;;;;;11.66;nan;98211.69;5045735;28;19925;-83
2023/12/22 01:11:53;;;;;;;;;;;;;;;11.59;nan;98214.84;5048183;28;20031;-84
2023/12/22 01:14:19;;;;;;;;;;;;;;;11.62;nan;98221.47;5051654;28;19924;-84
2023/12/22 01:16:44;;;;;;;;;;;;;;;11.57;nan;98209.00;5046892;28;20297;-83
2023/12/22 01:19:09;;;;;;;;;;;;;;;11.59;nan;98222.91;5049372;28;19927;-83
2023/12/22 01:21:34;;;;;;;;;;;;;;;11.56;nan;98199.41;5044167;28;20290;-83
2023/12/22 01:24:00;;;;;;;;;;;;;;;11.55;nan;98237.25;5056069;28;19920;-84
2023/12/22 01:26:25;;;;;;;;;;;;;;;11.54;nan;98217.69;5047278;28;19920;-84
2023/12/22 01:28:50;;;;;;;;;;;;;;;11.45;nan;98241.03;5054809;28;19960;-84
2023/12/22 01:31:16;;;;;;;;;;;;;;;11.39;nan;98256.47;5047180;28;19923;-83
2023/12/22 01:33:41;;;;;;;;;;;;;;;11.42;nan;98257.75;5046243;28;19928;-83
2023/12/22 01:36:06;;;;;;;;;;;;;;;11.37;nan;98249.84;5051245;28;19920;-83
2023/12/22 01:38:31;;;;;;;;;;;;;;;11.38;nan;98238.03;5032252;28;19917;-83
2023/12/22 01:40:57;;;;;;;;;;;;;;;11.40;nan;98244.66;5053077;28;19924;-83
2023/12/22 01:43:23;;;;;;;;;;;;;;;11.41;nan;98234.72;5051474;28;20455;-82
2023/12/22 01:45:51;;;;;;;;;;;;;;;11.44;nan;98253.63;5049584;28;19925;-82
2023/12/22 01:48:17;;;;;;;;;;;;;;;11.42;nan;98242.44;5047045;28;19920;-83
2023/12/22 01:50:44;;;;;;;;;;;;;;;11.49;nan;98236.63;5045592;28;19966;-83
2023/12/22 01:53:10;;;;;;;;;;;;;;;11.40;nan;98235.81;5045854;28;20353;-83
2023/12/22 01:55:35;;;;;;;;;;;;;;;11.39;nan;98242.28;5045852;28;20007;-84
2023/12/22 01:58:00;;;;;;;;;;;;;;;11.34;nan;98239.75;5048437;28;20408;-83
2023/12/22 02:00:25;;;;;;;;;;;;;;;11.37;nan;98233.78;5048407;28;20015;-83
2023/12/22 02:02:52;;;;;;;;;;;;;;;11.40;nan;98251.91;5049871;28;19924;-82
2023/12/22 02:05:17;;;;;;;;;;;;;;;11.36;nan;98250.97;5049724;28;19971;-84
2023/12/22 02:07:43;;;;;;;;;;;;;;;11.36;nan;98267.84;5047587;28;19983;-83
2023/12/22 02:10:09;;;;;;;;;;;;;;;11.36;nan;98261.69;5054996;28;19951;-84
2023/12/22 02:12:35;;;;;;;;;;;;;;;11.40;nan;98259.94;5050515;28;19999;-83
2023/12/22 02:15:00;;;;;;;;;;;;;;;11.43;nan;98260.09;5049830;28;20737;-83
2023/12/22 02:17:31;;;;;;;;;;;;;;;11.44;nan;98268.94;5045451;28;20444;-83
2023/12/22 02:19:58;;;;;;;;;;;;;;;11.46;nan;98296.22;5052832;28;19955;-84
2023/12/22 02:22:23;;;;;;;;;;;;;;;11.44;nan;98314.50;5053449;28;20012;-83
2023/12/22 02:24:49;;;;;;;;;;;;;;;11.38;nan;98305.84;5047171;28;20582;-82
2023/12/22 02:27:17;;;;;;;;;;;;;;;11.38;nan;98313.88;5047614;28;20628;-84
2023/12/22 02:29:53;;;;;;;;;;;;;;;11.31;nan;98310.06;5044307;28;19987;-86
2023/12/22 02:32:27;;;;;;;;;;;;;;;11.31;nan;98318.09;5048594;28;19948;-84
2023/12/22 02:34:54;;;;;;;;;;;;;;;11.27;nan;98325.19;5050831;28;20002;-84
2023/12/22 02:37:21;;;;;;;;;;;;;;;11.29;nan;98314.94;5049891;28;20050;-85
2023/12/22 02:39:47;;;;;;;;;;;;;;;11.24;nan;98299.81;5049728;28;19925;-84
2023/12/22 02:42:12;;;;;;;;;;;;;;;11.23;nan;98286.72;5049915;28;19917;-84
2023/12/22 02:44:38;;;;;;;;;;;;;;;11.22;nan;98301.22;5045162;28;19948;-83
2023/12/22 02:47:03;;;;;;;;;;;;;;;11.22;nan;98320.00;5046772;28;19921;-84
2023/12/22 02:49:28;;;;;;;;;;;;;;;11.24;nan;98302.50;5049220;28;19916;-84
2023/12/22 02:51:54;;;;;;;;;;;;;;;11.19;nan;98306.09;5052906;28;19921;-83
2023/12/22 02:54:19;;;;;;;;;;;;;;;11.18;nan;98317.94;5036070;28;20384;-84
2023/12/22 02:56:47;;;;;;;;;;;;;;;11.15;nan;98317.78;5045279;28;19995;-85
2023/12/22 02:59:12;;;;;;;;;;;;;;;11.13;nan;98315.41;5046575;28;20587;-83
2023/12/22 03:01:38;;;;;;;;;;;;;;;11.10;nan;98309.84;5045640;28;19921;-84
2023/12/22 03:04:03;;;;;;;;;;;;;;;11.10;nan;98305.28;5048677;28;20004;-83
2023/12/22 03:06:28;;;;;;;;;;;;;;;11.03;nan;98302.28;5043146;28;19925;-84
2023/12/22 03:08:54;;;;;;;;;;;;;;;11.00;nan;98327.00;5053090;28;20015;-83
2023/12/22 03:11:19;;;;;;;;;;;;;;;10.96;nan;98326.06;5049480;28;19928;-84
2023/12/22 03:13:44;;;;;;;;;;;;;;;10.93;nan;98323.97;5043970;28;19968;-83
2023/12/22 03:16:10;;;;;;;;;;;;;;;10.89;nan;98320.34;5046945;28;20403;-83
2023/12/22 03:18:37;;;;;;;;;;;;;;;10.90;nan;98311.19;5042941;28;19928;-84
2023/12/22 03:21:02;;;;;;;;;;;;;;;10.88;nan;98300.78;5048034;28;19921;-84
2023/12/22 03:23:27;;;;;;;;;;;;;;;10.88;nan;98321.44;5050400;28;20292;-83
2023/12/22 03:25:53;;;;;;;;;;;;;;;10.88;nan;98310.72;5033358;28;20285;-83
2023/12/22 03:28:18;;;;;;;;;;;;;;;10.82;nan;98307.41;5050477;28;19924;-84
2023/12/22 03:30:43;;;;;;;;;;;;;;;10.80;nan;98304.25;5045246;28;19929;-83
2023/12/22 03:33:08;;;;;;;;;;;;;;;10.76;nan;98302.47;5050263;28;20567;-84
2023/12/22 03:35:34;;;;;;;;;;;;;;;10.73;nan;98298.53;5046375;28;19974;-84
2023/12/22 03:37:59;;;;;;;;;;;;;;;10.72;nan;98299.63;5048377;28;20369;-83
2023/12/22 03:40:24;;;;;;;;;;;;;;;10.69;nan;98291.41;5046560;28;19929;-83
2023/12/22 03:42:50;;;;;;;;;;;;;;;10.68;nan;98295.19;5048002;28;20459;-84
2023/12/22 03:45:15;;;;;;;;;;;;;;;10.64;nan;98300.38;5049133;28;19925;-84
2023/12/22 03:47:40;;;;;;;;;;;;;;;10.62;nan;98288.41;5044705;28;19921;-84
2023/12/22 03:50:06;;;;;;;;;;;;;;;10.59;nan;98293.28;5050679;28;20011;-83
2023/12/22 03:52:32;;;;;;;;;;;;;;;10.59;nan;98279.06;5044064;28;19921;-84
2023/12/22 03:54:57;;;;;;;;;;;;;;;10.57;nan;98303.47;5048229;28;19927;-83
2023/12/22 03:57:22;;;;;;;;;;;;;;;10.56;nan;98280.47;5047415;28;19917;-85
2023/12/22 03:59:48;;;;;;;;;;;;;;;10.55;nan;98294.97;5049063;28;19932;-84
2023/12/22 04:02:13;;;;;;;;;;;;;;;10.54;nan;98305.97;5048008;28;19916;-84
2023/12/22 04:04:38;;;;;;;;;;;;;;;10.57;nan;98308.03;5046278;28;19920;-84
2023/12/22 04:07:04;;;;;;;;;;;;;;;10.53;nan;98305.19;5046828;28;19920;-84
2023/12/22 04:09:29;;;;;;;;;;;;;;;10.49;nan;98331.00;5049705;28;20006;-84
2023/12/22 04:11:54;;;;;;;;;;;;;;;10.50;nan;98324.56;5044726;28;20446;-84
2023/12/22 04:14:19;;;;;;;;;;;;;;;10.52;nan;98317.00;5045374;28;19916;-83
2023/12/22 04:16:45;;;;;;;;;;;;;;;10.51;nan;98333.38;5047259;28;19931;-84
2023/12/22 04:19:10;;;;;;;;;;;;;;;10.54;nan;98330.88;5046328;28;20542;-84
2023/12/22 04:21:36;;;;;;;;;;;;;;;10.55;nan;98326.31;5045990;28;19928;-84
2023/12/22 04:24:01;;;;;;;;;;;;;;;10.50;nan;98332.59;5045428;28;20369;-84
2023/12/22 04:26:26;;;;;;;;;;;;;;;10.42;nan;98324.50;5047970;28;19920;-85
2023/12/22 04:28:51;;;;;;;;;;;;;;;10.29;nan;98318.91;5048954;28;19920;-84
2023/12/22 04:31:17;;;;;;;;;;;;;;;10.28;nan;98319.22;5043910;28;19964;-84
2023/12/22 04:33:42;;;;;;;;;;;;;;;10.20;nan;98317.22;5051515;28;19928;-84
2023/12/22 04:36:07;;;;;;;;;;;;;;;10.13;nan;98323.03;5054483;28;19932;-84
2023/12/22 04:38:32;;;;;;;;;;;;;;;10.13;nan;98322.22;5047776;28;20654;-84
2023/12/22 04:40:58;;;;;;;;;;;;;;;10.14;nan;98337.19;5043941;28;19921;-85
2023/12/22 04:43:23;;;;;;;;;;;;;;;10.22;nan;98336.47;5050798;28;19935;-84
2023/12/22 04:45:48;;;;;;;;;;;;;;;10.25;nan;98331.34;5029315;28;19925;-84
2023/12/22 04:48:14;;;;;;;;;;;;;;;10.25;nan;98325.19;5038408;28;20347;-84
2023/12/22 04:50:39;;;;;;;;;;;;;;;10.20;nan;98319.91;5044970;28;20003;-84
2023/12/22 04:53:04;;;;;;;;;;;;;;;10.18;nan;98309.50;5053479;28;19927;-84
2023/12/22 04:55:30;;;;;;;;;;;;;;;10.16;nan;98308.25;5041847;28;19932;-83
2023/12/22 04:57:55;;;;;;;;;;;;;;;10.17;nan;98296.44;5044474;28;20554;-83
2023/12/22 05:00:21;;;;;;;;;;;;;;;10.13;nan;98306.19;5051953;28;20404;-84
2023/12/22 05:02:46;;;;;;;;;;;;;;;10.06;nan;98287.88;5049210;28;20008;-84
2023/12/22 05:05:11;;;;;;;;;;;;;;;10.08;nan;98295.59;5052462;28;19917;-83
2023/12/22 05:07:37;;;;;;;;;;;;;;;10.04;nan;98271.31;5043489;28;19944;-84
2023/12/22 05:10:02;;;;;;;;;;;;;;;10.07;nan;98268.06;5051115;28;19931;-85
2023/12/22 05:12:28;;;;;;;;;;;;;;;10.04;nan;98254.47;5034520;28;19927;-84
2023/12/22 05:14:54;;;;;;;;;;;;;;;10.04;nan;98270.53;5054008;28;20384;-83
2023/12/22 05:17:19;;;;;;;;;;;;;;;10.04;nan;98281.22;5043570;28;19920;-84
2023/12/22 05:19:45;;;;;;;;;;;;;;;10.02;nan;98284.22;5042649;28;20494;-84
2023/12/22 05:22:10;;;;;;;;;;;;;;;9.96;nan;98288.91;5047052;28;20566;-82
2023/12/22 05:24:37;;;;;;;;;;;;;;;9.91;nan;98278.31;5041638;28;19921;-84
2023/12/22 05:27:02;;;;;;;;;;;;;;;9.84;nan;98271.81;5048521;28;19939;-82
2023/12/22 05:29:28;;;;;;;;;;;;;;;9.83;nan;98284.38;5051207;28;20345;-83
2023/12/22 05:31:53;;;;;;;;;;;;;;;9.81;nan;98296.47;5039471;28;19970;-83
2023/12/22 05:34:18;;;;;;;;;;;;;;;9.69;nan;98316.53;5040024;28;19921;-82
2023/12/22 05:36:43;;;;;;;;;;;;;;;9.58;nan;98303.69;5046197;28;20079;-82
2023/12/22 05:39:09;;;;;;;;;;;;;;;9.51;nan;98332.69;5044250;28;19921;-82
2023/12/22 05:41:37;;;;;;;;;;;;;;;9.38;nan;98327.09;5042475;28;19929;-83
2023/12/22 05:44:02;;;;;;;;;;;;;;;9.26;nan;98320.66;5049409;28;19999;-83
2023/12/22 05:46:27;;;;;;;;;;;;;;;9.08;nan;98339.16;5043898;28;20063;-84
2023/12/22 05:48:53;;;;;;;;;;;;;;;9.03;nan;98322.44;5024317;28;19921;-83
2023/12/22 05:51:18;;;;;;;;;;;;;;;8.95;nan;98304.41;5048827;28;19960;-83
2023/12/22 05:53:43;;;;;;;;;;;;;;;8.94;nan;98302.84;5047554;28;19927;-83
2023/12/22 05:56:19;;;;;;;;;;;;;;;8.94;nan;98306.31;5044359;28;19917;-83
2023/12/22 05:58:44;;;;;;;;;;;;;;;8.97;nan;98311.03;5040561;28;20885;-83
2023/12/22 06:01:14;;;;;;;;;;;;;;;9.04;nan;98291.97;5047224;28;19925;-83
2023/12/22 06:03:40;;;;;;;;;;;;;;;8.98;nan;98301.19;5045976;28;19935;-83
2023/12/22 06:06:05;;;;;;;;;;;;;;;9.02;nan;98318.19;5049016;28;20344;-83
2023/12/22 06:08:30;;;;;;;;;;;;;;;9.05;nan;98310.38;5047887;28;19927;-82
2023/12/22 06:10:56;;;;;;;;;;;;;;;9.07;nan;98310.06;5051862;28;20309;-83
2023/12/22 06:13:21;;;;;;;;;;;;;;;9.10;nan;98312.16;5045269;28;19927;-83
2023/12/22 06:15:46;;;;;;;;;;;;;;;9.11;nan;98321.75;5048078;28;19916;-82
2023/12/22 06:18:11;;;;;;;;;;;;;;;9.13;nan;98306.19;5033257;28;19932;-82
2023/12/22 06:20:37;;;;;;;;;;;;;;;9.08;nan;98307.09;5047324;28;20285;-83
2023/12/22 06:23:04;;;;;;;;;;;;;;;9.09;nan;98306.00;5051750;28;19948;-84
2023/12/22 06:25:29;;;;;;;;;;;;;;;9.11;nan;98297.69;5051052;28;19924;-83
2023/12/22 06:27:54;;;;;;;;;;;;;;;9.13;nan;98300.06;5046318;28;19925;-83
2023/12/22 06:30:20;;;;;;;;;;;;;;;9.19;nan;98298.91;5047982;28;19970;-84
2023/12/22 06:32:45;;;;;;;;;;;;;;;9.21;nan;98305.53;5046994;28;19917;-84
2023/12/22 06:35:10;;;;;;;;;;;;;;;9.26;nan;98313.44;5051957;28;19923;-84
2023/12/22 06:37:35;;;;;;;;;;;;;;;9.31;nan;98328.56;5048092;28;20352;-84
2023/12/22 06:40:01;;;;;;;;;;;;;;;9.32;nan;98320.25;5046435;28;19970;-83
2023/12/22 06:42:26;;;;;;;;;;;;;;;9.39;nan;98315.31;5050053;28;19981;-82
2023/12/22 06:44:51;;;;;;;;;;;;;;;9.35;nan;98317.00;5032943;28;19921;-82
2023/12/22 06:47:16;;;;;;;;;;;;;;;9.33;nan;98324.50;5027783;28;19916;-83
2023/12/22 06:49:42;;;;;;;;;;;;;;;9.35;nan;98325.00;5029582;28;20055;-82
2023/12/22 06:52:07;;;;;;;;;;;;;;;9.34;nan;98328.78;5052475;28;19924;-83
2023/12/22 06:54:33;;;;;;;;;;;;;;;9.36;nan;98326.59;5047518;28;20012;-83
2023/12/22 06:56:59;;;;;;;;;;;;;;;9.32;nan;98341.63;5049285;28;19932;-83
2023/12/22 06:59:24;;;;;;;;;;;;;;;9.33;nan;98334.38;5046395;28;19917;-83
2023/12/22 07:01:49;;;;;;;;;;;;;;;9.34;nan;98334.13;5043289;28;19929;-83
2023/12/22 07:04:14;;;;;;;;;;;;;;;9.33;nan;98339.72;5048126;28;20426;-83
2023/12/22 07:06:40;;;;;;;;;;;;;;;9.39;nan;98339.34;5045276;28;19925;-82
2023/12/22 07:09:12;;;;;;;;;;;;;;;9.42;nan;98340.63;5044663;28;19927;-83
2023/12/22 07:11:47;;;;;;;;;;;;;;;9.43;nan;98346.78;5040630;28;20319;-82
2023/12/22 07:14:12;;;;;;;;;;;;;;;9.49;nan;98364.28;5046448;28;19917;-83
2023/12/22 07:16:38;;;;;;;;;;;;;;;9.51;nan;98351.41;5027206;28;20388;-83
2023/12/22 07:19:04;;;;;;;;;;;;;;;9.53;nan;98343.91;5049171;28;19970;-83
2023/12/22 07:21:29;;;;;;;;;;;;;;;9.54;nan;98334.78;5048931;28;19971;-82
2023/12/22 07:23:55;;;;;;;;;;;;;;;9.52;nan;98337.75;5044964;28;21125;-82
2023/12/22 07:26:21;;;;;;;;;;;;;;;9.58;nan;98346.47;5048582;28;20014;-83
2023/12/22 07:28:47;;;;;;;;;;;;;;;9.63;nan;98360.50;5043538;28;19921;-84
2023/12/22 07:31:12;;;;;;;;;;;;;;;9.71;nan;98360.91;5049998;28;19954;-83
2023/12/22 07:33:37;;;;;;;;;;;;;;;9.68;nan;98367.63;5042163;28;19920;-83
2023/12/22 07:36:03;;;;;;;;;;;;;;;9.70;nan;98349.41;5049970;28;19917;-83
2023/12/22 07:38:28;;;;;;;;;;;;;;;9.69;nan;98353.16;5042511;28;19917;-82
2023/12/22 07:40:53;;;;;;;;;;;;;;;9.67;nan;98361.47;5046179;28;20047;-83
2023/12/22 07:43:19;;;;;;;;;;;;;;;9.73;nan;98348.03;5045940;28;19925;-83
2023/12/22 07:45:44;;;;;;;;;;;;;;;9.72;nan;98343.75;5045362;28;20380;-82
2023/12/22 07:48:09;;;;;;;;;;;;;;;9.71;nan;98356.34;5045304;28;19924;-83
2023/12/22 07:50:35;;;;;;;;;;;;;;;9.72;nan;98357.94;5043181;28;20592;-83
2023/12/22 07:53:00;;;;;;;;;;;;;;;9.75;nan;98361.88;5028935;28;19921;-83
2023/12/22 07:55:25;;;;;;;;;;;;;;;9.79;nan;98376.22;5047507;28;20377;-83
2023/12/22 07:57:51;;;;;;;;;;;;;;;9.82;nan;98348.88;5045921;28;19925;-82
2023/12/22 08:00:17;;;;;;;;;;;;;;;9.82;nan;98360.38;5043634;28;20124;-83
2023/12/22 08:02:42;;;;;;;;;;;;;;;9.85;nan;98367.00;5042349;28;19924;-82
2023/12/22 08:05:07;;;;;;;;;;;;;;;9.84;nan;98360.06;5050446;28;20450;-82
2023/12/22 08:07:33;;;;;;;;;;;;;;;9.80;nan;98370.56;5046871;28;19923;-82
2023/12/22 08:09:58;;;;;;;;;;;;;;;9.82;nan;98355.00;5047384;28;19917;-83
2023/12/22 08:12:23;;;;;;;;;;;;;;;9.82;nan;98381.75;5051012;28;19917;-83
2023/12/22 08:14:48;;;;;;;;;;;;;;;9.82;nan;98378.28;5043578;28;19974;-83
2023/12/22 08:17:14;;;;;;;;;;;;;;;9.78;nan;98388.81;5050332;28;19916;-82
2023/12/22 08:19:42;;;;;;;;;;;;;;;9.83;nan;98395.91;5046151;28;19917;-84
2023/12/22 08:22:08;;;;;;;;;;;;;;;9.79;nan;98417.13;5033109;28;19928;-82
2023/12/22 08:24:33;;;;;;;;;;;;;;;9.79;nan;98411.78;5052613;28;19916;-83
2023/12/22 08:26:58;;;;;;;;;;;;;;;9.83;nan;98401.28;5046745;28;19956;-82
2023/12/22 08:29:24;;;;;;;;;;;;;;;9.84;nan;98409.00;5043447;28;19970;-82
2023/12/22 08:31:49;;;;;;;;;;;;;;;9.83;nan;98423.44;5037767;28;19921;-81
2023/12/22 08:34:14;;;;;;;;;;;;;;;9.81;nan;98441.69;5031018;28;19924;-82
2023/12/22 08:36:39;;;;;;;;;;;;;;;9.80;nan;98423.25;5028937;28;20873;-83
2023/12/22 08:39:05;;;;;;;;;;;;;;;9.79;nan;98446.53;5030223;28;19925;-82
2023/12/22 08:41:35;;;;;;;;;;;;;;;9.74;nan;98435.16;5032101;28;20412;-83
2023/12/22 08:44:01;;;;;;;;;;;;;;;9.77;nan;98442.59;5035998;28;19994;-82
2023/12/22 08:46:26;;;;;;;;;;;;;;;9.76;nan;98425.75;5029880;28;20556;-82
2023/12/22 08:48:51;;;;;;;;;;;;;;;9.76;nan;98431.09;5028798;28;19927;-82
2023/12/22 08:51:16;;;;;;;;;;;;;;;9.76;nan;98441.00;5028465;28;20484;-82
2023/12/22 08:53:42;;;;;;;;;;;;;;;9.81;nan;98454.28;5027659;28;19932;-83
2023/12/22 08:56:08;;;;;;;;;;;;;;;9.81;nan;98416.81;5029442;28;19928;-83
2023/12/22 08:58:33;;;;;;;;;;;;;;;9.78;nan;98422.78;5029866;28;19932;-82
2023/12/22 09:00:58;;;;;;;;;;;;;;;9.87;nan;98439.69;5028437;28;19929;-82
2023/12/22 09:03:24;;;;;;;;;;;;;;;9.89;nan;98435.66;5029515;28;19925;-82
2023/12/22 09:05:49;;;;;;;;;;;;;;;9.90;nan;98441.78;5027567;28;20200;-82
2023/12/22 09:08:14;;;;;;;;;;;;;;;9.93;nan;98427.81;5028347;28;20547;-83
2023/12/22 09:10:40;;;;;;;;;;;;;;;9.93;nan;98449.22;5028064;28;19925;-83
2023/12/22 09:13:05;;;;;;;;;;;;;;;9.98;nan;98441.88;5011124;28;19970;-83
2023/12/22 09:15:30;;;;;;;;;;;;;;;10.06;nan;98452.97;5029964;28;19927;-82
2023/12/22 09:17:55;;;;;;;;;;;;;;;10.09;nan;98452.38;5029776;28;20369;-82
2023/12/22 09:20:21;;;;;;;;;;;;;;;10.08;nan;98461.47;5030675;28;19937;-83
2023/12/22 09:22:46;;;;;;;;;;;;;;;10.10;nan;98470.00;5015353;28;19974;-84
2023/12/22 09:25:11;;;;;;;;;;;;;;;10.11;nan;98475.03;5028790;28;20413;-83
2023/12/22 09:27:37;;;;;;;;;;;;;;;10.16;nan;98469.56;5026656;28;19929;-83
2023/12/22 09:30:04;;;;;;;;;;;;;;;10.26;nan;98474.75;5029316;28;19932;-83
2023/12/22 09:32:29;;;;;;;;;;;;;;;10.28;nan;98483.28;5029189;28;19924;-82
2023/12/22 09:34:56;;;;;;;;;;;;;;;10.32;nan;98461.25;5032629;28;19925;-83
2023/12/22 09:37:22;;;;;;;;;;;;;;;10.35;nan;98482.84;5032030;28;19967;-82
2023/12/22 09:39:47;;;;;;;;;;;;;;;10.39;nan;98473.13;5030921;28;20008;-83
2023/12/22 09:42:12;;;;;;;;;;;;;;;10.38;nan;98476.09;5032503;28;20412;-83
2023/12/22 09:44:38;;;;;;;;;;;;;;;10.35;nan;98482.84;5032652;28;20369;-83
2023/12/22 09:47:04;;;;;;;;;;;;;;;10.34;nan;98475.91;5035160;28;19916;-83
2023/12/22 09:49:30;;;;;;;;;;;;;;;10.34;nan;98502.69;5032994;28;19920;-83
2023/12/22 09:51:56;;;;;;;;;;;;;;;10.34;nan;98502.69;5032325;28;20560;-83
2023/12/22 09:54:22;;;;;;;;;;;;;;;10.25;nan;98520.56;5032934;28;19920;-83
2023/12/22 09:56:48;;;;;;;;;;;;;;;10.29;nan;98513.50;5031366;28;19925;-82
2023/12/22 09:59:13;;;;;;;;;;;;;;;10.33;nan;98514.47;5042290;28;20438;-83
2023/12/22 10:01:44;;;;;;;;;;;;;;;10.34;nan;98516.06;5027444;28;19925;-83
2023/12/22 10:04:09;;;;;;;;;;;;;;;10.40;nan;98496.13;5046104;28;19927;-82
2023/12/22 10:06:35;;;;;;;;;;;;;;;10.36;nan;98516.56;5045526;28;20364;-84
2023/12/22 10:09:01;;;;;;;;;;;;;;;10.40;nan;98535.47;5048935;28;19921;-83
2023/12/22 10:11:28;;;;;;;;;;;;;;;10.34;nan;98550.06;5046454;28;19924;-84
2023/12/22 10:13:55;;;;;;;;;;;;;;;10.28;nan;98531.44;5046758;28;19921;-84
2023/12/22 10:16:20;;;;;;;;;;;;;;;10.30;nan;98544.53;5043892;28;19927;-84
2023/12/22 10:18:46;;;;;;;;;;;;;;;10.28;nan;98562.78;5039901;28;20627;-84
2023/12/22 10:21:11;;;;;;;;;;;;;;;10.26;nan;98562.28;5031391;28;19935;-84
2023/12/22 10:23:37;;;;;;;;;;;;;;;10.29;nan;98575.84;5029154;28;19924;-84
2023/12/22 10:26:03;;;;;;;;;;;;;;;10.34;nan;98572.28;5030470;28;19929;-84
2023/12/22 10:28:28;;;;;;;;;;;;;;;10.39;nan;98584.75;5029431;28;20090;-85
2023/12/22 10:30:55;;;;;;;;;;;;;;;10.46;nan;98559.19;5029223;28;19932;-85
2023/12/22 10:33:21;;;;;;;;;;;;;;;10.48;nan;98565.03;5029812;28;19932;-84
2023/12/22 10:35:46;;;;;;;;;;;;;;;10.51;nan;98587.72;5030570;28;19921;-84
2023/12/22 10:38:11;;;;;;;;;;;;;;;10.51;nan;98575.13;5031640;28;20669;-83
2023/12/22 10:40:37;;;;;;;;;;;;;;;10.52;nan;98560.66;5030403;28;19925;-84
2023/12/22 10:43:02;;;;;;;;;;;;;;;10.54;nan;98577.19;5030403;28;19928;-83
2023/12/22 10:45:29;;;;;;;;;;;;;;;10.56;nan;98579.56;5030316;28;19924;-83
2023/12/22 10:47:54;;;;;;;;;;;;;;;10.57;nan;98581.94;5028824;28;20413;-83
2023/12/22 10:50:20;;;;;;;;;;;;;;;10.57;nan;98567.78;5031422;28;19925;-83
2023/12/22 10:52:49;;;;;;;;;;;;;;;10.56;nan;98564.31;5029678;28;19932;-84
2023/12/22 10:55:15;;;;;;;;;;;;;;;10.55;nan;98578.00;5030191;28;20117;-84
2023/12/22 10:57:40;;;;;;;;;;;;;;;10.63;nan;98579.19;5042301;28;19956;-83
2023/12/22 11:00:07;;;;;;;;;;;;;;;10.68;nan;98597.81;5023646;28;20504;-83
2023/12/22 11:02:32;;;;;;;;;;;;;;;10.70;nan;98566.97;5029733;28;19921;-83
2023/12/22 11:05:02;;;;;;;;;;;;;;;10.69;nan;98584.13;5030605;28;19932;-85
2023/12/22 11:07:28;;;;;;;;;;;;;;;10.66;nan;98600.00;5029823;28;20401;-84
2023/12/22 11:09:55;;;;;;;;;;;;;;;10.70;nan;98582.22;5028118;28;20562;-84
2023/12/22 11:12:21;;;;;;;;;;;;;;;10.72;nan;98599.59;5039080;28;20335;-83
2023/12/22 11:14:50;;;;;;;;;;;;;;;10.76;nan;98597.09;5032663;28;20010;-83
2023/12/22 11:17:18;;;;;;;;;;;;;;;10.74;nan;98593.91;5028335;28;20057;-87
2023/12/22 11:19:43;;;;;;;;;;;;;;;10.77;nan;98587.97;5028098;28;19976;-85
2023/12/22 11:22:09;;;;;;;;;;;;;;;10.75;nan;98593.63;5031515;28;19956;-84
2023/12/22 11:24:35;;;;;;;;;;;;;;;10.79;nan;98607.22;5027957;28;19921;-84
2023/12/22 11:27:01;;;;;;;;;;;;;;;10.78;nan;98611.00;5030092;28;19925;-84
2023/12/22 11:29:27;;;;;;;;;;;;;;;10.74;nan;98623.38;5028942;28;20014;-84
2023/12/22 11:31:55;;;;;;;;;;;;;;;10.76;nan;98622.00;5029477;28;19925;-85
2023/12/22 11:34:21;;;;;;;;;;;;;;;10.80;nan;98630.25;5028251;28;19959;-84
2023/12/22 11:36:47;;;;;;;;;;;;;;;10.84;nan;98632.00;5028579;28;20047;-84
2023/12/22 11:39:14;;;;;;;;;;;;;;;10.87;nan;98631.41;5028541;28;19925;-83
2023/12/22 11:41:40;;;;;;;;;;;;;;;10.89;nan;98641.81;5029642;28;19976;-84
2023/12/22 11:44:06;;;;;;;;;;;;;;;10.92;nan;98659.16;5011444;28;19925;-84
2023/12/22 11:46:32;;;;;;;;;;;;;;;10.99;nan;98638.94;5028765;28;20296;-84
2023/12/22 11:48:58;;;;;;;;;;;;;;;11.01;nan;98634.06;5029492;28;20020;-85
2023/12/22 11:51:26;;;;;;;;;;;;;;;11.06;nan;98625.91;5028575;28;19929;-84
2023/12/22 11:53:51;;;;;;;;;;;;;;;10.98;nan;98653.41;5026149;28;19924;-84
2023/12/22 11:56:18;;;;;;;;;;;;;;;11.00;nan;98635.16;5026888;28;20599;-85
2023/12/22 11:58:54;;;;;;;;;;;;;;;11.02;nan;98649.03;5029219;28;19982;-85
2023/12/22 12:01:21;;;;;;;;;;;;;;;11.06;nan;98627.78;5026516;28;19929;-84
2023/12/22 12:03:53;;;;;;;;;;;;;;;11.06;nan;98622.41;5027951;28;20417;-84
2023/12/22 12:06:30;;;;;;;;;;;;;;;11.10;nan;98621.50;5029052;28;19921;-83
2023/12/22 12:08:56;;;;;;;;;;;;;;;11.25;nan;98616.91;5027216;28;19974;-84
2023/12/22 12:11:22;;;;;;;;;;;;;;;11.31;nan;98629.91;5029434;28;19925;-84
2023/12/22 12:13:48;;;;;;;;;;;;;;;11.47;nan;98635.66;5027415;28;19917;-85
2023/12/22 12:16:14;;;;;;;;;;;;;;;11.53;nan;98644.41;5041381;28;20048;-85
2023/12/22 12:18:42;;;;;;;;;;;;;;;11.54;nan;98633.38;5040145;28;19984;-85
2023/12/22 12:21:08;;;;;;;;;;;;;;;11.55;nan;98650.25;5042769;28;19994;-86
2023/12/22 12:23:33;;;;;;;;;;;;;;;11.57;nan;98630.06;5036571;28;19931;-85
2023/12/22 12:25:59;;;;;;;;;;;;;;;11.53;nan;98639.81;5040124;28;20312;-85
2023/12/22 12:28:31;;;;;;;;;;;;;;;11.49;nan;98647.69;5038867;28;19982;-85
2023/12/22 12:31:01;;;;;;;;;;;;;;;11.53;nan;98642.50;5033860;28;19920;-86
2023/12/22 12:33:27;;;;;;;;;;;;;;;11.54;nan;98641.41;5041588;28;19924;-82
2023/12/22 12:35:53;;;;;;;;;;;;;;;11.55;nan;98653.72;5042867;28;19931;-84
2023/12/22 12:38:21;;;;;;;;;;;;;;;11.54;nan;98662.88;5038400;28;19920;-85
2023/12/22 12:40:48;;;;;;;;;;;;;;;11.54;nan;98646.78;5039716;28;20047;-86
2023/12/22 12:43:13;;;;;;;;;;;;;;;11.54;nan;98638.72;5044072;28;19927;-84
2023/12/22 12:45:40;;;;;;;;;;;;;;;11.60;nan;98652.78;5024608;28;20089;-84
2023/12/22 12:48:08;;;;;;;;;;;;;;;11.64;nan;98667.97;5043878;28;20006;-84
2023/12/22 12:50:33;;;;;;;;;;;;;;;11.67;nan;98662.00;5041675;28;20596;-84
2023/12/22 12:53:01;;;;;;;;;;;;;;;11.68;nan;98663.59;5023911;28;19920;-84
2023/12/22 12:55:27;;;;;;;;;;;;;;;11.73;nan;98668.03;5037437;28;19928;-84
2023/12/22 12:57:53;;;;;;;;;;;;;;;11.74;nan;98675.00;5040442;28;19973;-85
2023/12/22 13:00:25;;;;;;;;;;;;;;;11.69;nan;98659.81;5041901;28;19928;-82
2023/12/22 13:02:51;;;;;;;;;;;;;;;11.67;nan;98670.06;5042162;28;19971;-84